< < Back
Terminal Aerodrome Forecast


Current Version              Previous Versions:   1  2  3  4  5  6  7  8  9  

Terminal Aerodrome Forecast

770
FTUS42 KMLB 242000 AAA
TAFMCO
TAF AMD
KMCO 242018Z 2420/2518 VRB03KT P6SM VCTS SCT035CB BKN250
      TEMPO 2420/2422 VRB15G23KT 2SM TSRA BKN015CB OVC030
     FM242300 18004KT P6SM FEW050 SCT250
     FM250700 22003KT P6SM FEW004
     FM251500 18005KT P6SM SCT030=



Latest METAR

997
SAUS70 KWBC 250600 RRF
MTRMCO
METAR KMCO 250553Z 21003KT 10SM FEW020 24/23 A3005 RMK AO2 SLP173
T02440228 10278 20244 53002


USA.gov is the U.S. government's official web portal to all federal, state and local government web resources and services.